createdAt,value
2018-09-21T00:02:01.010Z,10.30
2018-09-21T00:04:29.146Z,14.00
2018-09-21T00:06:56.426Z,8.87
2018-09-21T00:09:23.700Z,9.00
2018-09-21T00:11:50.973Z,8.15
2018-09-21T00:14:18.751Z,10.87
2018-09-21T00:16:46.002Z,7.70
2018-09-21T00:19:13.257Z,9.90
2018-09-21T00:24:08.110Z,12.05
2018-09-21T00:26:35.998Z,9.20
2018-09-21T00:29:03.271Z,6.80
2018-09-21T00:31:30.559Z,10.13
2018-09-21T00:36:24.608Z,8.40
2018-09-21T00:43:51.607Z,8.70
2018-09-21T00:46:18.852Z,7.93
2018-09-21T00:48:46.111Z,10.40
2018-09-21T00:51:13.359Z,6.80
2018-09-21T00:53:40.609Z,6.65
2018-09-21T00:56:07.859Z,9.00
2018-09-21T00:58:35.161Z,8.83
2018-09-21T01:01:02.439Z,7.53
2018-09-21T01:03:29.724Z,7.50
2018-09-21T01:05:56.988Z,10.67
2018-09-21T01:08:24.258Z,9.57
2018-09-21T01:10:51.568Z,8.10
2018-09-21T01:13:18.806Z,9.87
2018-09-21T01:15:46.074Z,6.40
2018-09-21T01:18:13.333Z,10.33
2018-09-21T01:20:40.603Z,10.23
2018-09-21T01:23:07.854Z,9.30
2018-09-21T01:25:35.112Z,10.15
2018-09-21T01:28:03.339Z,11.60
2018-09-21T01:30:30.624Z,10.07
2018-09-21T01:32:57.868Z,9.17
2018-09-21T01:35:25.634Z,10.77
2018-09-21T01:37:52.868Z,8.00
2018-09-21T01:40:20.126Z,10.37
2018-09-21T01:42:47.249Z,11.07
2018-09-21T01:45:14.340Z,8.23
2018-09-21T01:47:41.433Z,10.30
2018-09-21T01:52:58.788Z,7.87
2018-09-21T01:57:58.940Z,10.30
2018-09-21T02:00:40.321Z,9.97
2018-09-21T02:03:07.416Z,10.75
2018-09-21T02:05:40.493Z,9.65
2018-09-21T02:08:07.700Z,10.63
2018-09-21T02:10:34.789Z,9.20
2018-09-21T02:13:01.905Z,10.05
2018-09-21T02:15:28.985Z,9.70
2018-09-21T02:23:30.604Z,6.40
2018-09-21T02:25:57.690Z,8.15
2018-09-21T02:28:24.780Z,9.60
2018-09-21T02:31:09.376Z,11.80
2018-09-21T02:35:43.550Z,7.60
2018-09-21T02:38:22.420Z,8.20
2018-09-21T02:40:56.135Z,8.53
2018-09-21T02:43:40.685Z,9.60
2018-09-21T02:46:19.284Z,7.80
2018-09-21T02:48:46.565Z,7.23
2018-09-21T02:51:13.726Z,8.90
2018-09-21T02:53:40.952Z,8.20
2018-09-21T02:56:08.164Z,10.83
2018-09-21T02:58:35.398Z,9.30
2018-09-21T03:01:02.638Z,7.83
2018-09-21T03:03:29.860Z,9.80
2018-09-21T03:05:57.068Z,7.50
2018-09-21T03:08:24.276Z,8.80
2018-09-21T03:10:51.768Z,13.85
2018-09-21T03:15:45.507Z,10.60
2018-09-21T03:18:12.590Z,8.67
2018-09-21T03:20:39.672Z,6.30
2018-09-21T03:23:06.780Z,7.60
2018-09-21T03:25:33.889Z,8.70
2018-09-21T03:28:00.968Z,7.97
2018-09-21T03:30:28.068Z,9.30
2018-09-21T03:32:55.182Z,9.40
2018-09-21T03:35:22.323Z,8.10
2018-09-21T03:37:49.376Z,9.40
2018-09-21T03:40:16.473Z,10.35
2018-09-21T03:42:43.557Z,9.35
2018-09-21T03:45:10.657Z,9.60
2018-09-21T03:47:37.752Z,9.23
2018-09-21T03:50:05.145Z,11.20
2018-09-21T03:52:32.244Z,7.53
2018-09-21T03:54:59.341Z,7.90
2018-09-21T03:57:26.441Z,8.60
2018-09-21T03:59:53.548Z,10.10
2018-09-21T04:02:21.340Z,13.07
2018-09-21T04:04:48.431Z,8.10
2018-09-21T04:07:15.513Z,7.20
2018-09-21T04:09:42.616Z,11.65
2018-09-21T04:12:09.711Z,8.80
2018-09-21T04:14:36.800Z,9.80
2018-09-21T04:17:04.003Z,10.20
2018-09-21T04:19:31.100Z,8.63
2018-09-21T04:21:58.208Z,9.13
2018-09-21T04:24:25.306Z,7.90
2018-09-21T04:26:52.404Z,6.60
2018-09-21T04:29:19.497Z,10.65
2018-09-21T04:31:46.613Z,10.20
2018-09-21T04:34:13.732Z,8.85
2018-09-21T04:44:01.564Z,10.50
2018-09-21T04:46:28.729Z,8.50
2018-09-21T04:53:49.149Z,10.20
2018-09-21T05:13:22.924Z,7.20
2018-09-21T05:30:32.463Z,8.20
2018-09-21T05:45:13.249Z,9.00
2018-09-21T05:47:40.446Z,9.50
2018-09-21T05:50:07.557Z,9.10
2018-09-21T05:52:34.666Z,7.60
2018-09-21T05:55:01.777Z,4.80
2018-09-21T05:57:28.894Z,5.50
2018-09-21T06:04:54.033Z,7.50
2018-09-21T06:31:47.786Z,7.50
2018-09-21T06:44:02.599Z,6.30
2018-09-21T07:08:29.702Z,6.40
2018-09-21T07:25:38.052Z,6.70
2018-09-21T07:28:05.281Z,8.70
2018-09-21T07:30:32.921Z,7.80
2018-09-21T07:33:00.089Z,7.95
2018-09-21T07:35:27.191Z,8.30
2018-09-21T07:38:09.009Z,4.43
2018-09-21T07:40:36.152Z,4.47
2018-09-21T07:43:03.456Z,7.37
2018-09-21T07:45:30.542Z,8.80
2018-09-21T07:47:57.648Z,9.07
2018-09-21T07:52:51.428Z,5.20
2018-09-21T07:55:18.526Z,5.73
2018-09-21T07:57:45.633Z,6.43
2018-09-21T08:00:12.748Z,7.87
2018-09-21T08:02:39.872Z,7.20
2018-09-21T08:05:07.088Z,6.60
2018-09-21T08:07:34.112Z,7.77
2018-09-21T08:10:01.249Z,6.80
2018-09-21T08:12:28.369Z,8.30
2018-09-21T08:14:55.472Z,8.47
2018-09-21T08:17:22.573Z,6.40
2018-09-21T08:19:49.685Z,7.40
2018-09-21T08:22:16.787Z,6.87
2018-09-21T08:24:43.908Z,9.43
2018-09-21T08:27:13.453Z,9.00
2018-09-21T08:29:40.565Z,7.63
2018-09-21T08:32:07.684Z,8.67
2018-09-21T08:34:34.811Z,9.27
2018-09-21T08:37:01.938Z,8.10
2018-09-21T08:39:29.030Z,8.73
2018-09-21T08:41:56.157Z,7.45
2018-09-21T08:44:23.311Z,7.03
2018-09-21T08:46:50.416Z,11.30
2018-09-21T08:49:17.514Z,11.63
2018-09-21T08:51:44.612Z,13.33
2018-09-21T08:54:11.693Z,10.37
2018-09-21T08:56:38.796Z,11.73
2018-09-21T08:59:05.885Z,12.17
2018-09-21T09:01:32.988Z,12.60
2018-09-21T09:04:00.112Z,9.57
2018-09-21T09:06:27.224Z,9.43
2018-09-21T09:08:54.372Z,14.70
2018-09-21T09:11:21.518Z,8.20
2018-09-21T09:13:48.628Z,12.57
2018-09-21T09:16:15.753Z,9.55
2018-09-21T09:18:42.848Z,9.45
2018-09-21T09:21:09.948Z,10.70
2018-09-21T09:23:37.069Z,11.97
2018-09-21T09:26:04.225Z,11.23
2018-09-21T09:28:31.347Z,10.15
2018-09-21T09:30:58.452Z,12.33
2018-09-21T09:33:25.561Z,7.53
2018-09-21T09:41:27.320Z,9.35
2018-09-21T09:43:54.437Z,11.63
2018-09-21T09:46:21.549Z,10.10
2018-09-21T09:54:23.381Z,6.55
2018-09-21T09:56:52.743Z,8.50
2018-09-21T09:59:23.930Z,5.70
2018-09-21T10:01:57.322Z,19.50
2018-09-21T10:04:26.187Z,4.90
2018-09-21T10:06:55.944Z,5.47
2018-09-21T10:09:31.340Z,9.55
2018-09-21T10:11:59.954Z,5.60
2018-09-21T10:14:30.168Z,6.25
2018-09-21T10:17:02.723Z,4.35
2018-09-21T10:19:30.803Z,5.40
2018-09-21T10:21:57.913Z,7.85
2018-09-21T10:24:25.008Z,5.15
2018-09-21T10:26:52.135Z,6.10
2018-09-21T10:29:19.253Z,5.50
2018-09-21T10:31:46.357Z,6.45
2018-09-21T10:34:13.464Z,4.30
2018-09-21T10:36:40.588Z,3.55
2018-09-21T10:39:08.048Z,3.00
2018-09-21T10:41:35.433Z,4.90
2018-09-21T10:44:02.567Z,3.80
2018-09-21T10:46:29.669Z,4.00
2018-09-21T10:48:56.769Z,2.90
2018-09-21T10:51:23.869Z,5.80
2018-09-21T10:53:50.971Z,2.70
2018-09-21T10:56:18.096Z,4.10
2018-09-21T10:58:45.321Z,4.27
2018-09-21T11:01:12.417Z,4.40
2018-09-21T11:03:39.544Z,2.20
2018-09-21T11:06:06.674Z,2.20
2018-09-21T11:09:36.979Z,3.10
2018-09-21T11:12:04.123Z,6.90
2018-09-21T11:14:31.264Z,5.70
2018-09-21T11:16:58.368Z,3.50
2018-09-21T11:19:25.460Z,1.75
2018-09-21T11:21:52.617Z,3.10
2018-09-21T11:24:19.728Z,3.30
2018-09-21T11:26:46.845Z,2.03
2018-09-21T11:29:13.945Z,2.90
2018-09-21T11:31:41.074Z,4.63
2018-09-21T11:34:08.165Z,8.45
2018-09-21T11:36:35.284Z,3.20
2018-09-21T11:39:02.592Z,3.00
2018-09-21T11:41:29.707Z,4.10
2018-09-21T11:43:56.812Z,3.10
2018-09-21T11:47:27.079Z,2.80
2018-09-21T11:52:20.809Z,2.10
2018-09-21T11:57:14.585Z,4.50
2018-09-21T12:11:54.964Z,4.70
2018-09-21T12:14:22.075Z,3.30
2018-09-21T12:16:49.246Z,3.25
2018-09-21T12:19:16.330Z,3.65
2018-09-21T12:21:43.437Z,4.00
2018-09-21T12:24:10.542Z,4.70
2018-09-21T12:26:37.669Z,3.00
2018-09-21T12:29:05.060Z,2.70
2018-09-21T12:31:32.182Z,4.40
2018-09-21T12:33:59.297Z,3.30
2018-09-21T12:38:53.084Z,5.30
2018-09-21T12:41:20.245Z,4.15
2018-09-21T12:43:47.457Z,5.00
2018-09-21T12:46:21.439Z,2.73
2018-09-21T12:48:49.504Z,3.40
2018-09-21T12:51:16.893Z,4.50
2018-09-21T12:53:44.189Z,7.60
2018-09-21T12:56:11.512Z,3.55
2018-09-21T12:58:39.469Z,5.20
2018-09-21T13:01:07.507Z,4.40
2018-09-21T13:03:34.852Z,4.10
2018-09-21T13:06:02.274Z,3.43
2018-09-21T13:18:17.592Z,2.25
2018-09-21T13:20:44.970Z,3.40
2018-09-21T13:23:12.297Z,3.65
2018-09-21T13:25:39.718Z,3.85
2018-09-21T13:28:08.126Z,4.00
2018-09-21T13:30:35.683Z,3.93
2018-09-21T13:33:03.084Z,2.70
2018-09-21T13:35:30.525Z,5.83
2018-09-21T13:37:58.321Z,3.20
2018-09-21T13:40:25.721Z,3.30
2018-09-21T13:42:53.012Z,3.47
2018-09-21T13:45:20.426Z,2.43
2018-09-21T13:47:48.008Z,4.40
2018-09-21T13:50:15.355Z,4.80
2018-09-21T13:52:42.645Z,4.30
2018-09-21T13:55:09.932Z,4.75
2018-09-21T13:57:37.257Z,3.50
2018-09-21T14:00:04.725Z,5.70
2018-09-21T14:02:32.021Z,4.90
2018-09-21T14:04:59.645Z,2.63
2018-09-21T14:07:26.978Z,4.45
2018-09-21T14:09:54.316Z,2.00
2018-09-21T14:12:21.702Z,3.90
2018-09-21T14:14:49.009Z,3.80
2018-09-21T14:17:16.880Z,2.40
2018-09-21T14:19:44.425Z,2.77
2018-09-21T14:22:12.246Z,4.45
2018-09-21T14:24:39.618Z,2.45
2018-09-21T14:27:07.427Z,11.10
2018-09-21T14:29:34.745Z,6.50
2018-09-21T14:32:02.130Z,5.27
2018-09-21T14:34:29.514Z,5.70
2018-09-21T14:36:57.097Z,3.87
2018-09-21T14:39:24.669Z,3.55
2018-09-21T14:41:52.357Z,4.05
2018-09-21T14:44:19.837Z,3.40
2018-09-21T14:46:47.285Z,7.00
2018-09-21T14:49:15.249Z,4.87
2018-09-21T14:51:42.833Z,4.07
2018-09-21T14:54:10.118Z,9.75
2018-09-21T14:56:37.458Z,4.60
2018-09-21T14:59:05.336Z,5.60
2018-09-21T15:01:32.763Z,5.00
2018-09-21T15:04:00.744Z,2.90
2018-09-21T15:06:28.486Z,3.17
2018-09-21T15:08:56.280Z,4.50
2018-09-21T15:11:23.625Z,3.55
2018-09-21T15:13:52.555Z,3.60
2018-09-21T15:21:13.648Z,4.15
2018-09-21T15:23:40.966Z,3.55
2018-09-21T15:26:08.297Z,3.97
2018-09-21T16:20:00.902Z,7.70
2018-09-21T16:37:13.358Z,4.05
2018-09-21T16:39:42.289Z,5.80
2018-09-21T16:42:09.644Z,5.50
2018-09-21T16:44:37.485Z,5.60
2018-09-21T16:51:58.436Z,4.60
2018-09-21T16:56:52.745Z,7.80
2018-09-21T16:59:20.037Z,7.70
2018-09-21T17:01:47.327Z,7.30
2018-09-21T17:04:14.682Z,6.30
2018-09-21T17:06:41.925Z,7.40
2018-09-21T17:09:10.671Z,6.30
2018-09-21T17:11:37.994Z,4.80
2018-09-21T17:14:05.341Z,3.93
2018-09-21T17:16:32.673Z,4.40
2018-09-21T17:18:59.997Z,5.45
2018-09-21T17:21:27.303Z,5.35
2018-09-21T17:23:54.622Z,3.80
2018-09-21T17:26:21.916Z,3.73
2018-09-21T17:28:49.272Z,6.60
2018-09-21T17:31:16.576Z,4.30
2018-09-21T17:33:43.873Z,7.95
2018-09-21T17:36:11.173Z,4.15
2018-09-21T17:38:38.461Z,2.75
2018-09-21T17:41:05.781Z,4.10
2018-09-21T17:43:33.086Z,8.43
2018-09-21T17:46:00.376Z,6.10
2018-09-21T17:48:27.681Z,4.60
2018-09-21T17:50:54.961Z,5.55
2018-09-21T17:53:22.274Z,8.85
2018-09-21T17:55:49.593Z,4.80
2018-09-21T17:59:19.800Z,7.70
2018-09-21T18:01:47.134Z,9.37
2018-09-21T18:04:14.429Z,7.40
2018-09-21T18:06:41.728Z,11.27
2018-09-21T18:09:10.014Z,6.73
2018-09-21T18:11:37.325Z,6.30
2018-09-21T18:14:04.620Z,7.40
2018-09-21T18:16:31.949Z,9.47
2018-09-21T18:18:59.214Z,9.23
2018-09-21T18:21:26.509Z,9.53
2018-09-21T18:23:53.822Z,8.70
2018-09-21T18:26:21.144Z,11.20
2018-09-21T18:28:48.499Z,10.35
2018-09-21T18:31:15.833Z,8.65
2018-09-21T18:33:43.101Z,6.53
2018-09-21T18:36:10.396Z,11.63
2018-09-21T18:38:37.713Z,8.93
2018-09-21T18:41:35.869Z,7.50
2018-09-21T18:44:03.564Z,9.13
2018-09-21T18:46:30.861Z,8.50
2018-09-21T18:48:58.208Z,14.00
2018-09-21T18:51:25.492Z,9.45
2018-09-21T18:53:52.772Z,10.20
2018-09-21T18:56:20.089Z,10.40
2018-09-21T18:58:47.378Z,9.40
2018-09-21T19:01:14.660Z,6.55
2018-09-21T19:03:41.953Z,8.50
2018-09-21T19:06:09.244Z,10.33
2018-09-21T19:08:36.540Z,8.85
2018-09-21T19:11:03.855Z,7.10
2018-09-21T19:13:31.167Z,12.65
2018-09-21T19:15:58.465Z,9.60
2018-09-21T19:18:25.773Z,12.90
2018-09-21T19:20:53.059Z,9.67
2018-09-21T19:23:20.381Z,10.05
2018-09-21T19:25:47.672Z,10.97
2018-09-21T19:28:15.027Z,9.67
2018-09-21T19:30:42.332Z,10.00
2018-09-21T19:33:09.614Z,10.60
2018-09-21T19:35:36.900Z,8.00
2018-09-21T19:38:04.258Z,8.40
2018-09-21T19:40:31.558Z,12.60
2018-09-21T19:42:58.858Z,9.87
2018-09-21T19:45:26.223Z,14.20
2018-09-21T19:47:53.434Z,12.27
2018-09-21T19:50:20.728Z,10.97
2018-09-21T19:52:48.013Z,12.33
2018-09-21T19:55:15.313Z,9.00
2018-09-21T19:57:42.606Z,10.77
2018-09-21T20:00:09.900Z,9.43
2018-09-21T20:02:37.177Z,12.10
2018-09-21T20:05:04.577Z,12.67
2018-09-21T20:07:31.865Z,11.50
2018-09-21T20:09:59.138Z,10.60
2018-09-21T20:12:26.509Z,11.05
2018-09-21T20:14:53.805Z,18.40
2018-09-21T20:17:21.093Z,11.53
2018-09-21T20:19:48.393Z,11.70
2018-09-21T20:22:15.698Z,8.70
2018-09-21T20:24:42.972Z,11.20
2018-09-21T20:27:10.277Z,11.90
2018-09-21T20:29:37.560Z,13.20
2018-09-21T20:32:10.542Z,13.70
2018-09-21T20:34:37.837Z,13.90
2018-09-21T20:37:05.161Z,12.35
2018-09-21T20:39:32.420Z,11.75
2018-09-21T20:41:59.724Z,12.30
2018-09-21T20:44:27.054Z,8.23
2018-09-21T20:46:54.372Z,13.70
2018-09-21T20:49:21.712Z,10.10
2018-09-21T20:51:49.026Z,10.37
2018-09-21T20:54:16.321Z,16.20
2018-09-21T20:56:43.608Z,12.55
2018-09-21T20:59:11.052Z,14.80
2018-09-21T21:01:38.297Z,12.20
2018-09-21T21:04:05.767Z,17.10
2018-09-21T21:06:33.060Z,12.65
2018-09-21T21:09:00.368Z,15.00
2018-09-21T21:11:27.670Z,13.43
2018-09-21T21:13:54.952Z,10.97
2018-09-21T21:16:22.249Z,15.80
2018-09-21T21:18:49.540Z,11.50
2018-09-21T21:21:16.828Z,12.90
2018-09-21T21:23:44.240Z,10.17
2018-09-21T21:26:11.524Z,13.93
2018-09-21T21:28:38.832Z,12.83
2018-09-21T21:31:06.153Z,13.93
2018-09-21T21:33:33.438Z,15.00
2018-09-21T21:36:00.741Z,10.07
2018-09-21T21:43:21.601Z,14.10
2018-09-21T21:45:48.884Z,12.67
2018-09-21T21:48:16.240Z,14.20
2018-09-21T21:50:43.549Z,16.45
2018-09-21T21:53:10.848Z,14.00
2018-09-21T21:55:38.123Z,13.97
2018-09-21T21:58:05.429Z,13.40
2018-09-21T22:00:38.280Z,10.83
2018-09-21T22:03:05.576Z,11.40
2018-09-21T22:05:32.899Z,13.27
2018-09-21T22:08:00.203Z,15.20
2018-09-21T22:10:27.481Z,11.45
2018-09-21T22:13:00.341Z,13.73
2018-09-21T22:15:27.642Z,17.20
2018-09-21T22:17:54.935Z,14.30
2018-09-21T22:20:22.262Z,12.77
2018-09-21T22:22:49.564Z,14.10
2018-09-21T22:25:16.849Z,15.10
2018-09-21T22:27:44.139Z,18.93
2018-09-21T22:30:12.278Z,12.97
2018-09-21T22:32:40.048Z,13.97
2018-09-21T22:35:07.397Z,12.97
2018-09-21T22:37:34.685Z,16.60
2018-09-21T22:40:02.003Z,14.97
2018-09-21T22:42:29.297Z,12.83
2018-09-21T22:44:56.648Z,17.40
2018-09-21T22:47:23.900Z,14.97
2018-09-21T22:49:51.189Z,13.63
2018-09-21T22:52:18.465Z,15.50
2018-09-21T22:54:45.809Z,15.53
2018-09-21T22:57:13.081Z,14.03
2018-09-21T22:59:40.392Z,14.97
2018-09-21T23:02:07.709Z,13.60
2018-09-21T23:04:35.012Z,14.30
2018-09-21T23:07:02.457Z,13.70
2018-09-21T23:09:29.753Z,14.53
2018-09-21T23:11:57.031Z,11.50
2018-09-21T23:14:24.328Z,14.60
2018-09-21T23:16:51.629Z,12.27
2018-09-21T23:19:18.908Z,14.70
2018-09-21T23:21:46.217Z,15.07
2018-09-21T23:24:13.501Z,10.07
2018-09-21T23:26:40.797Z,13.03
2018-09-21T23:29:08.090Z,10.93
2018-09-21T23:31:35.392Z,9.73
2018-09-21T23:34:02.666Z,11.55
2018-09-21T23:36:29.972Z,12.50
2018-09-21T23:38:57.299Z,9.90
2018-09-21T23:41:24.601Z,11.67
2018-09-21T23:43:51.884Z,10.67
2018-09-21T23:46:19.201Z,12.77
2018-09-21T23:48:46.485Z,14.40
2018-09-21T23:51:13.776Z,14.50
2018-09-21T23:53:41.133Z,12.40
2018-09-21T23:56:08.755Z,16.70
2018-09-21T23:58:36.422Z,12.75
